sensor_id;sensor_type;location;lat;lon;timestamp;temperature;humidity
6484;DHT22;3275;52.376;9.694;2023-11-21T06:55:09;9.50;99.90
6484;DHT22;3275;52.376;9.694;2023-11-21T06:57:36;9.40;99.90
6484;DHT22;3275;52.376;9.694;2023-11-21T07:00:04;9.30;99.90
6484;DHT22;3275;52.376;9.694;2023-11-21T07:02:34;9.20;99.90
6484;DHT22;3275;52.376;9.694;2023-11-21T07:05:01;9.10;99.90
6484;DHT22;3275;52.376;9.694;2023-11-21T07:07:28;9.00;99.90
6484;DHT22;3275;52.376;9.694;2023-11-21T07:09:54;9.30;99.90
6484;DHT22;3275;52.376;9.694;2023-11-21T07:12:22;8.90;99.90
6484;DHT22;3275;52.376;9.694;2023-11-21T07:14:51;8.90;99.90
6484;DHT22;3275;52.376;9.694;2023-11-21T07:17:17;8.70;99.90
6484;DHT22;3275;52.376;9.694;2023-11-21T07:19:44;8.70;99.90
6484;DHT22;3275;52.376;9.694;2023-11-21T07:22:11;8.70;99.90
6484;DHT22;3275;52.376;9.694;2023-11-21T07:24:39;8.80;99.90
6484;DHT22;3275;52.376;9.694;2023-11-21T07:27:06;8.70;99.90
6484;DHT22;3275;52.376;9.694;2023-11-21T07:29:35;8.70;99.90
6484;DHT22;3275;52.376;9.694;2023-11-21T07:32:02;8.70;99.90
6484;DHT22;3275;52.376;9.694;2023-11-21T07:34:28;8.70;99.90
6484;DHT22;3275;52.376;9.694;2023-11-21T07:36:55;8.70;99.90
6484;DHT22;3275;52.376;9.694;2023-11-21T07:39:22;8.70;99.90
6484;DHT22;3275;52.376;9.694;2023-11-21T07:41:48;8.70;99.90
6484;DHT22;3275;52.376;9.694;2023-11-21T07:44:15;8.80;99.90
6484;DHT22;3275;52.376;9.694;2023-11-21T07:46:44;8.70;99.90
6484;DHT22;3275;52.376;9.694;2023-11-21T07:49:11;8.70;99.90
6484;DHT22;3275;52.376;9.694;2023-11-21T07:51:40;8.70;99.90
6484;DHT22;3275;52.376;9.694;2023-11-21T07:54:07;8.80;99.90
6484;DHT22;3275;52.376;9.694;2023-11-21T07:56:33;8.80;99.90
6484;DHT22;3275;52.376;9.694;2023-11-21T07:59:00;8.80;99.90
6484;DHT22;3275;52.376;9.694;2023-11-21T08:01:26;8.70;99.90
6484;DHT22;3275;52.376;9.694;2023-11-21T08:03:55;8.70;99.90
6484;DHT22;3275;52.376;9.694;2023-11-21T08:06:24;8.60;99.90
6484;DHT22;3275;52.376;9.694;2023-11-21T08:08:51;8.50;99.90
6484;DHT22;3275;52.376;9.694;2023-11-21T08:11:18;8.50;99.90
6484;DHT22;3275;52.376;9.694;2023-11-21T08:13:45;8.50;99.90
6484;DHT22;3275;52.376;9.694;2023-11-21T08:16:12;8.50;99.90
6484;DHT22;3275;52.376;9.694;2023-11-21T08:18:39;8.50;99.90
6484;DHT22;3275;52.376;9.694;2023-11-21T08:21:08;8.50;99.90
6484;DHT22;3275;52.376;9.694;2023-11-21T08:23:34;8.50;99.90
6484;DHT22;3275;52.376;9.694;2023-11-21T08:26:01;8.50;99.90
6484;DHT22;3275;52.376;9.694;2023-11-21T08:28:28;8.60;99.90
6484;DHT22;3275;52.376;9.694;2023-11-21T08:30:55;8.60;99.90
6484;DHT22;3275;52.376;9.694;2023-11-21T08:33:22;8.60;99.90
6484;DHT22;3275;52.376;9.694;2023-11-21T08:35:49;8.70;99.90
6484;DHT22;3275;52.376;9.694;2023-11-21T08:38:17;8.60;99.90
6484;DHT22;3275;52.376;9.694;2023-11-21T08:40:44;8.60;99.90
6484;DHT22;3275;52.376;9.694;2023-11-21T08:43:10;8.60;99.90
6484;DHT22;3275;52.376;9.694;2023-11-21T08:45:37;8.50;99.90
6484;DHT22;3275;52.376;9.694;2023-11-21T08:48:04;8.50;99.90
6484;DHT22;3275;52.376;9.694;2023-11-21T08:50:31;8.60;99.90
6484;DHT22;3275;52.376;9.694;2023-11-21T08:52:58;8.60;99.90
6484;DHT22;3275;52.376;9.694;2023-11-21T08:55:26;8.60;99.90
6484;DHT22;3275;52.376;9.694;2023-11-21T08:57:53;8.60;99.90
6484;DHT22;3275;52.376;9.694;2023-11-21T09:00:19;8.60;99.90
6484;DHT22;3275;52.376;9.694;2023-11-21T09:02:47;8.70;99.90
6484;DHT22;3275;52.376;9.694;2023-11-21T09:05:14;8.80;99.90
6484;DHT22;3275;52.376;9.694;2023-11-21T09:07:41;8.70;99.90
6484;DHT22;3275;52.376;9.694;2023-11-21T09:10:09;8.70;99.90
6484;DHT22;3275;52.376;9.694;2023-11-21T09:12:37;8.90;99.90
6484;DHT22;3275;52.376;9.694;2023-11-21T09:15:05;8.80;99.90
6484;DHT22;3275;52.376;9.694;2023-11-21T09:17:32;8.70;99.90
6484;DHT22;3275;52.376;9.694;2023-11-21T09:20:00;8.70;99.90
6484;DHT22;3275;52.376;9.694;2023-11-21T09:22:28;8.70;99.90
6484;DHT22;3275;52.376;9.694;2023-11-21T09:24:58;8.70;99.90
6484;DHT22;3275;52.376;9.694;2023-11-21T09:27:25;8.80;99.90
6484;DHT22;3275;52.376;9.694;2023-11-21T09:29:53;8.80;99.90
6484;DHT22;3275;52.376;9.694;2023-11-21T09:32:21;8.70;99.90
6484;DHT22;3275;52.376;9.694;2023-11-21T09:34:47;8.70;99.90
6484;DHT22;3275;52.376;9.694;2023-11-21T09:37:14;8.70;99.90
6484;DHT22;3275;52.376;9.694;2023-11-21T09:39:41;8.60;99.90
6484;DHT22;3275;52.376;9.694;2023-11-21T09:42:11;8.70;99.90
6484;DHT22;3275;52.376;9.694;2023-11-21T09:44:45;8.60;99.90
6484;DHT22;3275;52.376;9.694;2023-11-21T09:47:15;8.60;99.90
6484;DHT22;3275;52.376;9.694;2023-11-21T09:49:47;8.60;99.90
6484;DHT22;3275;52.376;9.694;2023-11-21T09:52:21;8.70;99.90
6484;DHT22;3275;52.376;9.694;2023-11-21T09:54:50;8.70;99.90
6484;DHT22;3275;52.376;9.694;2023-11-21T09:57:19;8.70;99.90
6484;DHT22;3275;52.376;9.694;2023-11-21T09:59:47;8.70;99.90
6484;DHT22;3275;52.376;9.694;2023-11-21T10:02:18;8.70;99.90
6484;DHT22;3275;52.376;9.694;2023-11-21T10:04:46;8.80;99.90
6484;DHT22;3275;52.376;9.694;2023-11-21T10:07:13;8.80;99.90
6484;DHT22;3275;52.376;9.694;2023-11-21T10:09:43;9.00;99.90
6484;DHT22;3275;52.376;9.694;2023-11-21T10:12:11;9.00;99.90
6484;DHT22;3275;52.376;9.694;2023-11-21T10:14:41;9.00;99.90
6484;DHT22;3275;52.376;9.694;2023-11-21T10:17:10;9.10;99.90
6484;DHT22;3275;52.376;9.694;2023-11-21T10:19:39;9.00;99.90
6484;DHT22;3275;52.376;9.694;2023-11-21T10:22:06;9.00;99.90
6484;DHT22;3275;52.376;9.694;2023-11-21T10:24:34;9.10;99.90
6484;DHT22;3275;52.376;9.694;2023-11-21T10:27:01;9.10;99.90
6484;DHT22;3275;52.376;9.694;2023-11-21T10:29:29;9.20;99.90
6484;DHT22;3275;52.376;9.694;2023-11-21T10:31:56;9.10;99.90
6484;DHT22;3275;52.376;9.694;2023-11-21T10:34:24;9.20;99.90
6484;DHT22;3275;52.376;9.694;2023-11-21T10:36:54;9.10;99.90
6484;DHT22;3275;52.376;9.694;2023-11-21T10:39:23;9.00;99.90
6484;DHT22;3275;52.376;9.694;2023-11-21T10:41:54;8.80;99.90
6484;DHT22;3275;52.376;9.694;2023-11-21T10:44:21;8.80;99.90
6484;DHT22;3275;52.376;9.694;2023-11-21T10:46:50;8.90;99.90
6484;DHT22;3275;52.376;9.694;2023-11-21T10:49:17;8.80;99.90
6484;DHT22;3275;52.376;9.694;2023-11-21T10:51:45;8.90;99.90
6484;DHT22;3275;52.376;9.694;2023-11-21T10:54:17;9.10;99.90
6484;DHT22;3275;52.376;9.694;2023-11-21T10:56:44;9.00;99.90
6484;DHT22;3275;52.376;9.694;2023-11-21T10:59:12;9.00;99.90
6484;DHT22;3275;52.376;9.694;2023-11-21T11:01:41;9.00;99.90
6484;DHT22;3275;52.376;9.694;2023-11-21T11:04:09;9.10;99.90
6484;DHT22;3275;52.376;9.694;2023-11-21T11:06:40;9.10;99.90
6484;DHT22;3275;52.376;9.694;2023-11-21T11:09:08;9.20;99.90
6484;DHT22;3275;52.376;9.694;2023-11-21T11:11:39;9.10;99.90
6484;DHT22;3275;52.376;9.694;2023-11-21T11:14:08;9.20;99.90
6484;DHT22;3275;52.376;9.694;2023-11-21T11:16:36;9.30;99.90
6484;DHT22;3275;52.376;9.694;2023-11-21T11:19:04;9.30;99.90
6484;DHT22;3275;52.376;9.694;2023-11-21T11:21:38;9.40;99.90
6484;DHT22;3275;52.376;9.694;2023-11-21T11:24:22;9.40;99.90
6484;DHT22;3275;52.376;9.694;2023-11-21T11:26:57;9.40;99.90
6484;DHT22;3275;52.376;9.694;2023-11-21T11:29:32;9.30;99.90
6484;DHT22;3275;52.376;9.694;2023-11-21T11:32:08;9.30;99.90
6484;DHT22;3275;52.376;9.694;2023-11-21T11:34:41;9.20;99.90
6484;DHT22;3275;52.376;9.694;2023-11-21T11:37:11;9.30;99.90
6484;DHT22;3275;52.376;9.694;2023-11-21T11:39:40;9.20;99.90
6484;DHT22;3275;52.376;9.694;2023-11-21T11:42:12;9.30;99.90
6484;DHT22;3275;52.376;9.694;2023-11-21T11:44:52;9.30;99.90
6484;DHT22;3275;52.376;9.694;2023-11-21T11:47:21;9.20;99.90
6484;DHT22;3275;52.376;9.694;2023-11-21T11:49:57;9.20;99.90
6484;DHT22;3275;52.376;9.694;2023-11-21T11:52:32;9.30;99.90
6484;DHT22;3275;52.376;9.694;2023-11-21T11:54:59;9.20;99.90
6484;DHT22;3275;52.376;9.694;2023-11-21T11:57:29;9.30;99.90
6484;DHT22;3275;52.376;9.694;2023-11-21T12:00:11;9.30;99.90
6484;DHT22;3275;52.376;9.694;2023-11-21T12:02:41;9.40;99.90
6484;DHT22;3275;52.376;9.694;2023-11-21T12:05:09;9.30;99.90
6484;DHT22;3275;52.376;9.694;2023-11-21T12:07:47;9.40;99.90
6484;DHT22;3275;52.376;9.694;2023-11-21T12:10:16;9.40;99.90
6484;DHT22;3275;52.376;9.694;2023-11-21T12:12:47;9.40;99.90
6484;DHT22;3275;52.376;9.694;2023-11-21T12:15:14;9.40;99.90
6484;DHT22;3275;52.376;9.694;2023-11-21T12:17:41;9.30;99.90
6484;DHT22;3275;52.376;9.694;2023-11-21T12:20:10;9.10;99.90
6484;DHT22;3275;52.376;9.694;2023-11-21T12:22:42;9.10;99.90
6484;DHT22;3275;52.376;9.694;2023-11-21T12:25:09;9.20;99.90
6484;DHT22;3275;52.376;9.694;2023-11-21T12:27:46;9.30;99.90
6484;DHT22;3275;52.376;9.694;2023-11-21T12:30:15;9.40;99.90
6484;DHT22;3275;52.376;9.694;2023-11-21T12:32:43;9.40;99.90
6484;DHT22;3275;52.376;9.694;2023-11-21T12:35:12;9.40;99.90
6484;DHT22;3275;52.376;9.694;2023-11-21T12:37:40;9.40;99.90
6484;DHT22;3275;52.376;9.694;2023-11-21T12:40:09;9.40;99.90
6484;DHT22;3275;52.376;9.694;2023-11-21T12:42:39;9.20;99.90
6484;DHT22;3275;52.376;9.694;2023-11-21T12:45:18;9.10;99.90
6484;DHT22;3275;52.376;9.694;2023-11-21T12:47:46;9.10;99.90
6484;DHT22;3275;52.376;9.694;2023-11-21T12:50:13;9.10;99.90
6484;DHT22;3275;52.376;9.694;2023-11-21T12:52:41;9.30;99.90
6484;DHT22;3275;52.376;9.694;2023-11-21T12:55:09;9.20;99.90
6484;DHT22;3275;52.376;9.694;2023-11-21T12:57:41;9.30;99.90
6484;DHT22;3275;52.376;9.694;2023-11-21T13:00:12;9.30;99.90
6484;DHT22;3275;52.376;9.694;2023-11-21T13:02:51;9.40;99.90
6484;DHT22;3275;52.376;9.694;2023-11-21T13:05:26;9.40;99.90
6484;DHT22;3275;52.376;9.694;2023-11-21T13:07:54;9.30;99.90
6484;DHT22;3275;52.376;9.694;2023-11-21T13:10:23;9.30;99.90
6484;DHT22;3275;52.376;9.694;2023-11-21T13:12:55;9.40;99.90
6484;DHT22;3275;52.376;9.694;2023-11-21T13:15:24;9.40;99.90
6484;DHT22;3275;52.376;9.694;2023-11-21T13:17:52;9.30;99.90
6484;DHT22;3275;52.376;9.694;2023-11-21T13:20:21;9.30;99.90
6484;DHT22;3275;52.376;9.694;2023-11-21T13:22:48;9.30;99.90
6484;DHT22;3275;52.376;9.694;2023-11-21T13:25:16;9.20;99.90
6484;DHT22;3275;52.376;9.694;2023-11-21T13:27:45;9.20;99.90
6484;DHT22;3275;52.376;9.694;2023-11-21T13:30:13;9.20;99.90
6484;DHT22;3275;52.376;9.694;2023-11-21T13:32:45;9.10;99.90
6484;DHT22;3275;52.376;9.694;2023-11-21T13:35:12;9.10;99.90
6484;DHT22;3275;52.376;9.694;2023-11-21T13:37:48;9.10;99.90
6484;DHT22;3275;52.376;9.694;2023-11-21T13:40:19;9.10;99.90
6484;DHT22;3275;52.376;9.694;2023-11-21T13:42:48;9.10;99.90
6484;DHT22;3275;52.376;9.694;2023-11-21T13:45:19;9.20;99.90
6484;DHT22;3275;52.376;9.694;2023-11-21T13:47:49;9.10;99.90
6484;DHT22;3275;52.376;9.694;2023-11-21T13:50:17;9.10;99.90
6484;DHT22;3275;52.376;9.694;2023-11-21T13:52:48;9.10;99.90
6484;DHT22;3275;52.376;9.694;2023-11-21T13:55:15;9.00;99.90
6484;DHT22;3275;52.376;9.694;2023-11-21T13:57:42;8.90;99.90
6484;DHT22;3275;52.376;9.694;2023-11-21T14:00:15;8.80;99.90
6484;DHT22;3275;52.376;9.694;2023-11-21T14:03:03;8.90;99.90
6484;DHT22;3275;52.376;9.694;2023-11-21T14:05:34;9.00;99.90
6484;DHT22;3275;52.376;9.694;2023-11-21T14:08:01;8.90;99.90
6484;DHT22;3275;52.376;9.694;2023-11-21T14:10:30;8.90;99.90
6484;DHT22;3275;52.376;9.694;2023-11-21T14:13:03;8.90;99.90
6484;DHT22;3275;52.376;9.694;2023-11-21T14:15:31;8.90;99.90
6484;DHT22;3275;52.376;9.694;2023-11-21T14:17:58;8.90;99.90
6484;DHT22;3275;52.376;9.694;2023-11-21T14:20:29;8.90;99.90
6484;DHT22;3275;52.376;9.694;2023-11-21T14:22:55;8.90;99.90
6484;DHT22;3275;52.376;9.694;2023-11-21T14:25:22;8.90;99.90
6484;DHT22;3275;52.376;9.694;2023-11-21T14:27:50;8.80;99.90
6484;DHT22;3275;52.376;9.694;2023-11-21T14:30:17;8.80;99.90
6484;DHT22;3275;52.376;9.694;2023-11-21T14:32:46;8.90;99.90
6484;DHT22;3275;52.376;9.694;2023-11-21T14:35:13;8.90;99.90
6484;DHT22;3275;52.376;9.694;2023-11-21T14:37:41;8.80;99.90
6484;DHT22;3275;52.376;9.694;2023-11-21T14:40:08;8.80;99.90
6484;DHT22;3275;52.376;9.694;2023-11-21T14:42:36;8.80;99.90
6484;DHT22;3275;52.376;9.694;2023-11-21T14:45:06;8.80;99.90
6484;DHT22;3275;52.376;9.694;2023-11-21T14:47:33;8.80;99.90
6484;DHT22;3275;52.376;9.694;2023-11-21T14:50:00;8.80;99.90
6484;DHT22;3275;52.376;9.694;2023-11-21T14:52:48;8.70;99.90
6484;DHT22;3275;52.376;9.694;2023-11-21T14:55:21;8.70;99.90
6484;DHT22;3275;52.376;9.694;2023-11-21T14:57:56;8.60;99.90
6484;DHT22;3275;52.376;9.694;2023-11-21T15:00:29;8.60;99.90
6484;DHT22;3275;52.376;9.694;2023-11-21T15:03:12;8.60;99.90
6484;DHT22;3275;52.376;9.694;2023-11-21T15:06:03;8.60;99.90
6484;DHT22;3275;52.376;9.694;2023-11-21T15:08:48;8.50;99.90
6484;DHT22;3275;52.376;9.694;2023-11-21T15:11:21;8.50;99.90
6484;DHT22;3275;52.376;9.694;2023-11-21T15:13:53;8.40;99.90
6484;DHT22;3275;52.376;9.694;2023-11-21T15:16:19;8.40;99.90
6484;DHT22;3275;52.376;9.694;2023-11-21T15:18:46;8.50;99.90
6484;DHT22;3275;52.376;9.694;2023-11-21T15:21:13;8.50;99.90
6484;DHT22;3275;52.376;9.694;2023-11-21T15:23:40;8.50;99.90
6484;DHT22;3275;52.376;9.694;2023-11-21T15:26:09;8.50;99.90
6484;DHT22;3275;52.376;9.694;2023-11-21T15:28:36;8.50;99.90
6484;DHT22;3275;52.376;9.694;2023-11-21T15:31:03;8.50;99.90
6484;DHT22;3275;52.376;9.694;2023-11-21T15:33:30;8.50;99.90
6484;DHT22;3275;52.376;9.694;2023-11-21T15:35:57;8.50;99.90
6484;DHT22;3275;52.376;9.694;2023-11-21T15:38:24;8.50;99.90
6484;DHT22;3275;52.376;9.694;2023-11-21T15:40:51;8.50;99.90
6484;DHT22;3275;52.376;9.694;2023-11-21T15:43:19;8.40;99.90
6484;DHT22;3275;52.376;9.694;2023-11-21T15:45:46;8.50;99.90
6484;DHT22;3275;52.376;9.694;2023-11-21T15:48:13;8.50;99.90
6484;DHT22;3275;52.376;9.694;2023-11-21T15:50:41;8.50;99.90
6484;DHT22;3275;52.376;9.694;2023-11-21T15:53:08;8.50;99.90
6484;DHT22;3275;52.376;9.694;2023-11-21T15:55:35;8.50;99.90
6484;DHT22;3275;52.376;9.694;2023-11-21T15:58:07;8.40;99.90
6484;DHT22;3275;52.376;9.694;2023-11-21T16:00:35;8.40;99.90
6484;DHT22;3275;52.376;9.694;2023-11-21T16:03:02;8.50;99.90
6484;DHT22;3275;52.376;9.694;2023-11-21T16:05:29;8.40;99.90
6484;DHT22;3275;52.376;9.694;2023-11-21T16:07:56;8.40;99.90
6484;DHT22;3275;52.376;9.694;2023-11-21T16:10:23;8.40;99.90
6484;DHT22;3275;52.376;9.694;2023-11-21T16:12:50;8.40;99.90
6484;DHT22;3275;52.376;9.694;2023-11-21T16:15:16;8.40;99.90
6484;DHT22;3275;52.376;9.694;2023-11-21T16:17:46;8.30;99.90
6484;DHT22;3275;52.376;9.694;2023-11-21T16:20:13;8.30;99.90
6484;DHT22;3275;52.376;9.694;2023-11-21T16:22:41;8.40;99.90
6484;DHT22;3275;52.376;9.694;2023-11-21T16:25:08;8.40;99.90
6484;DHT22;3275;52.376;9.694;2023-11-21T16:27:38;8.30;99.90
6484;DHT22;3275;52.376;9.694;2023-11-21T16:30:06;8.30;99.90
6484;DHT22;3275;52.376;9.694;2023-11-21T16:32:35;8.30;99.90
6484;DHT22;3275;52.376;9.694;2023-11-21T16:35:03;8.30;99.90
6484;DHT22;3275;52.376;9.694;2023-11-21T16:37:30;8.30;99.90
6484;DHT22;3275;52.376;9.694;2023-11-21T16:39:58;8.30;99.90
6484;DHT22;3275;52.376;9.694;2023-11-21T16:42:25;8.40;99.90
6484;DHT22;3275;52.376;9.694;2023-11-21T16:44:53;8.30;99.90
6484;DHT22;3275;52.376;9.694;2023-11-21T16:47:20;8.30;99.90
6484;DHT22;3275;52.376;9.694;2023-11-21T16:49:48;8.40;99.90
6484;DHT22;3275;52.376;9.694;2023-11-21T16:52:16;8.30;99.90
6484;DHT22;3275;52.376;9.694;2023-11-21T16:54:47;8.30;99.90
6484;DHT22;3275;52.376;9.694;2023-11-21T16:57:14;8.30;99.90
6484;DHT22;3275;52.376;9.694;2023-11-21T16:59:41;8.30;99.90
6484;DHT22;3275;52.376;9.694;2023-11-21T17:02:08;8.20;99.90
6484;DHT22;3275;52.376;9.694;2023-11-21T17:04:35;8.20;99.90
6484;DHT22;3275;52.376;9.694;2023-11-21T17:07:06;8.30;99.90
6484;DHT22;3275;52.376;9.694;2023-11-21T17:09:35;8.30;99.90
6484;DHT22;3275;52.376;9.694;2023-11-21T17:12:02;8.30;99.90
6484;DHT22;3275;52.376;9.694;2023-11-21T17:14:31;8.20;99.90
6484;DHT22;3275;52.376;9.694;2023-11-21T17:16:57;8.20;99.90
6484;DHT22;3275;52.376;9.694;2023-11-21T17:19:24;8.30;99.90
6484;DHT22;3275;52.376;9.694;2023-11-21T17:21:56;8.30;99.90
6484;DHT22;3275;52.376;9.694;2023-11-21T17:24:23;8.30;99.90
6484;DHT22;3275;52.376;9.694;2023-11-21T17:26:51;8.20;99.90
6484;DHT22;3275;52.376;9.694;2023-11-21T17:29:18;8.20;99.90
6484;DHT22;3275;52.376;9.694;2023-11-21T17:31:47;8.20;99.90
6484;DHT22;3275;52.376;9.694;2023-11-21T17:34:14;8.10;99.90
6484;DHT22;3275;52.376;9.694;2023-11-21T17:36:44;8.60;99.90
6484;DHT22;3275;52.376;9.694;2023-11-21T17:39:11;8.00;99.90
6484;DHT22;3275;52.376;9.694;2023-11-21T17:41:38;8.00;99.90
6484;DHT22;3275;52.376;9.694;2023-11-21T17:44:07;8.00;99.90
6484;DHT22;3275;52.376;9.694;2023-11-21T17:46:33;8.00;99.90
6484;DHT22;3275;52.376;9.694;2023-11-21T17:49:00;8.00;99.90
6484;DHT22;3275;52.376;9.694;2023-11-21T17:51:27;8.00;99.90
6484;DHT22;3275;52.376;9.694;2023-11-21T17:53:54;8.10;99.90
6484;DHT22;3275;52.376;9.694;2023-11-21T17:56:26;8.10;99.90
6484;DHT22;3275;52.376;9.694;2023-11-21T17:58:54;8.10;99.90
6484;DHT22;3275;52.376;9.694;2023-11-21T18:01:23;8.10;99.90
6484;DHT22;3275;52.376;9.694;2023-11-21T18:03:56;8.10;99.90
6484;DHT22;3275;52.376;9.694;2023-11-21T18:06:23;8.00;99.90
6484;DHT22;3275;52.376;9.694;2023-11-21T18:08:50;8.10;99.90
6484;DHT22;3275;52.376;9.694;2023-11-21T18:11:17;8.00;99.90
6484;DHT22;3275;52.376;9.694;2023-11-21T18:13:44;8.00;99.90
6484;DHT22;3275;52.376;9.694;2023-11-21T18:16:11;8.10;99.90
6484;DHT22;3275;52.376;9.694;2023-11-21T18:18:39;8.10;99.90
6484;DHT22;3275;52.376;9.694;2023-11-21T18:21:06;8.10;99.90
6484;DHT22;3275;52.376;9.694;2023-11-21T18:23:33;8.10;99.90
6484;DHT22;3275;52.376;9.694;2023-11-21T18:26:00;7.90;99.90
6484;DHT22;3275;52.376;9.694;2023-11-21T18:28:27;7.90;99.90
6484;DHT22;3275;52.376;9.694;2023-11-21T18:30:54;7.90;99.90
6484;DHT22;3275;52.376;9.694;2023-11-21T18:33:21;7.90;99.90
6484;DHT22;3275;52.376;9.694;2023-11-21T18:35:49;7.80;99.90
6484;DHT22;3275;52.376;9.694;2023-11-21T18:38:16;7.80;99.90
6484;DHT22;3275;52.376;9.694;2023-11-21T18:40:43;7.90;99.90
6484;DHT22;3275;52.376;9.694;2023-11-21T18:43:10;8.00;99.90
6484;DHT22;3275;52.376;9.694;2023-11-21T18:45:37;7.90;99.90
6484;DHT22;3275;52.376;9.694;2023-11-21T18:48:04;7.90;99.90
6484;DHT22;3275;52.376;9.694;2023-11-21T18:50:31;7.90;99.90
6484;DHT22;3275;52.376;9.694;2023-11-21T18:53:01;7.80;99.90
6484;DHT22;3275;52.376;9.694;2023-11-21T18:55:29;7.80;99.90
6484;DHT22;3275;52.376;9.694;2023-11-21T18:57:56;8.20;99.90
6484;DHT22;3275;52.376;9.694;2023-11-21T19:00:22;7.80;99.90
6484;DHT22;3275;52.376;9.694;2023-11-21T19:02:49;7.80;99.90
6484;DHT22;3275;52.376;9.694;2023-11-21T19:05:16;8.40;99.90
6484;DHT22;3275;52.376;9.694;2023-11-21T19:07:43;7.90;99.90
6484;DHT22;3275;52.376;9.694;2023-11-21T19:10:11;7.80;99.90
6484;DHT22;3275;52.376;9.694;2023-11-21T19:12:38;7.80;99.90
6484;DHT22;3275;52.376;9.694;2023-11-21T19:15:06;7.80;99.90
6484;DHT22;3275;52.376;9.694;2023-11-21T19:17:34;7.90;99.90
6484;DHT22;3275;52.376;9.694;2023-11-21T19:20:01;7.90;99.90
6484;DHT22;3275;52.376;9.694;2023-11-21T19:22:28;7.90;99.90
6484;DHT22;3275;52.376;9.694;2023-11-21T19:24:55;7.90;99.90
6484;DHT22;3275;52.376;9.694;2023-11-21T19:27:23;8.00;99.90
6484;DHT22;3275;52.376;9.694;2023-11-21T19:29:50;8.00;99.90
6484;DHT22;3275;52.376;9.694;2023-11-21T19:32:17;7.90;99.90
6484;DHT22;3275;52.376;9.694;2023-11-21T19:34:43;8.00;99.90
6484;DHT22;3275;52.376;9.694;2023-11-21T19:37:10;7.90;99.90
6484;DHT22;3275;52.376;9.694;2023-11-21T19:39:37;7.80;99.90
6484;DHT22;3275;52.376;9.694;2023-11-21T19:42:04;7.80;99.90
6484;DHT22;3275;52.376;9.694;2023-11-21T19:44:32;7.80;99.90
6484;DHT22;3275;52.376;9.694;2023-11-21T19:47:01;7.60;99.90
6484;DHT22;3275;52.376;9.694;2023-11-21T19:49:28;7.70;99.90
6484;DHT22;3275;52.376;9.694;2023-11-21T19:51:55;7.70;99.90
6484;DHT22;3275;52.376;9.694;2023-11-21T19:54:22;7.70;99.90
6484;DHT22;3275;52.376;9.694;2023-11-21T19:56:48;7.70;99.90
6484;DHT22;3275;52.376;9.694;2023-11-21T19:59:15;7.60;99.90
6484;DHT22;3275;52.376;9.694;2023-11-21T20:01:44;7.60;99.90
6484;DHT22;3275;52.376;9.694;2023-11-21T20:04:10;7.70;99.90
6484;DHT22;3275;52.376;9.694;2023-11-21T20:06:38;7.60;99.90
6484;DHT22;3275;52.376;9.694;2023-11-21T20:09:05;7.50;99.90
6484;DHT22;3275;52.376;9.694;2023-11-21T20:11:32;7.40;99.90
6484;DHT22;3275;52.376;9.694;2023-11-21T20:13:59;7.40;99.90
6484;DHT22;3275;52.376;9.694;2023-11-21T20:16:26;7.40;99.90
6484;DHT22;3275;52.376;9.694;2023-11-21T20:18:54;7.40;99.90
6484;DHT22;3275;52.376;9.694;2023-11-21T20:21:21;7.50;99.90
6484;DHT22;3275;52.376;9.694;2023-11-21T20:23:48;7.50;99.90
6484;DHT22;3275;52.376;9.694;2023-11-21T20:26:20;7.50;99.90
6484;DHT22;3275;52.376;9.694;2023-11-21T20:28:48;7.50;99.90
6484;DHT22;3275;52.376;9.694;2023-11-21T20:31:15;7.50;99.90
6484;DHT22;3275;52.376;9.694;2023-11-21T20:33:42;7.30;99.90
6484;DHT22;3275;52.376;9.694;2023-11-21T20:36:10;7.30;99.90
6484;DHT22;3275;52.376;9.694;2023-11-21T20:38:37;7.30;99.90
6484;DHT22;3275;52.376;9.694;2023-11-21T20:41:05;7.30;99.90
6484;DHT22;3275;52.376;9.694;2023-11-21T20:43:37;7.40;99.90
6484;DHT22;3275;52.376;9.694;2023-11-21T20:46:04;7.20;99.90
6484;DHT22;3275;52.376;9.694;2023-11-21T20:48:31;7.20;99.90
6484;DHT22;3275;52.376;9.694;2023-11-21T20:50:58;7.20;99.90
6484;DHT22;3275;52.376;9.694;2023-11-21T20:53:26;7.10;99.90
6484;DHT22;3275;52.376;9.694;2023-11-21T20:55:53;7.10;99.90
6484;DHT22;3275;52.376;9.694;2023-11-21T20:58:21;7.10;99.90
6484;DHT22;3275;52.376;9.694;2023-11-21T21:00:48;7.20;99.90
6484;DHT22;3275;52.376;9.694;2023-11-21T21:03:14;7.10;99.90
6484;DHT22;3275;52.376;9.694;2023-11-21T21:05:41;7.10;99.90
6484;DHT22;3275;52.376;9.694;2023-11-21T21:08:08;7.10;99.90
6484;DHT22;3275;52.376;9.694;2023-11-21T21:10:38;7.10;99.90
6484;DHT22;3275;52.376;9.694;2023-11-21T21:13:06;7.20;99.90
6484;DHT22;3275;52.376;9.694;2023-11-21T21:15:34;7.20;99.90
6484;DHT22;3275;52.376;9.694;2023-11-21T21:18:01;7.30;99.90
6484;DHT22;3275;52.376;9.694;2023-11-21T21:20:30;7.30;99.90
6484;DHT22;3275;52.376;9.694;2023-11-21T21:22:57;7.20;99.90
6484;DHT22;3275;52.376;9.694;2023-11-21T21:25:25;7.20;99.90
6484;DHT22;3275;52.376;9.694;2023-11-21T21:27:53;7.10;99.90
6484;DHT22;3275;52.376;9.694;2023-11-21T21:30:20;7.10;99.90
6484;DHT22;3275;52.376;9.694;2023-11-21T21:32:47;7.10;99.90
6484;DHT22;3275;52.376;9.694;2023-11-21T21:35:13;7.10;99.90
6484;DHT22;3275;52.376;9.694;2023-11-21T21:37:41;7.20;99.90
6484;DHT22;3275;52.376;9.694;2023-11-21T21:40:09;7.10;99.90
6484;DHT22;3275;52.376;9.694;2023-11-21T21:42:36;7.10;99.90
6484;DHT22;3275;52.376;9.694;2023-11-21T21:45:05;7.20;99.90
6484;DHT22;3275;52.376;9.694;2023-11-21T21:47:32;7.20;99.90
6484;DHT22;3275;52.376;9.694;2023-11-21T21:49:59;7.10;99.90
6484;DHT22;3275;52.376;9.694;2023-11-21T21:52:33;7.10;99.90
6484;DHT22;3275;52.376;9.694;2023-11-21T21:55:00;7.20;99.90
6484;DHT22;3275;52.376;9.694;2023-11-21T21:57:28;7.10;99.90
6484;DHT22;3275;52.376;9.694;2023-11-21T21:59:54;7.00;99.90
6484;DHT22;3275;52.376;9.694;2023-11-21T22:02:22;7.00;99.90
6484;DHT22;3275;52.376;9.694;2023-11-21T22:04:49;7.00;99.90
6484;DHT22;3275;52.376;9.694;2023-11-21T22:07:16;7.00;99.90
6484;DHT22;3275;52.376;9.694;2023-11-21T22:09:42;6.90;99.90
6484;DHT22;3275;52.376;9.694;2023-11-21T22:12:09;6.70;99.90
6484;DHT22;3275;52.376;9.694;2023-11-21T22:14:36;6.80;99.90
6484;DHT22;3275;52.376;9.694;2023-11-21T22:17:03;6.70;99.90
6484;DHT22;3275;52.376;9.694;2023-11-21T22:19:31;6.70;99.90
6484;DHT22;3275;52.376;9.694;2023-11-21T22:21:58;6.60;99.90
6484;DHT22;3275;52.376;9.694;2023-11-21T22:24:25;6.60;99.90
6484;DHT22;3275;52.376;9.694;2023-11-21T22:26:53;6.60;99.90
6484;DHT22;3275;52.376;9.694;2023-11-21T22:29:20;6.60;99.90
6484;DHT22;3275;52.376;9.694;2023-11-21T22:31:47;6.50;99.90
6484;DHT22;3275;52.376;9.694;2023-11-21T22:34:15;6.40;99.90
6484;DHT22;3275;52.376;9.694;2023-11-21T22:36:43;6.50;99.90
6484;DHT22;3275;52.376;9.694;2023-11-21T22:39:10;6.40;99.90
6484;DHT22;3275;52.376;9.694;2023-11-21T22:41:36;6.30;99.90
6484;DHT22;3275;52.376;9.694;2023-11-21T22:44:03;6.30;99.90
6484;DHT22;3275;52.376;9.694;2023-11-21T22:46:30;6.30;99.90
6484;DHT22;3275;52.376;9.694;2023-11-21T22:48:57;6.30;99.90
6484;DHT22;3275;52.376;9.694;2023-11-21T22:51:24;6.20;99.90
6484;DHT22;3275;52.376;9.694;2023-11-21T22:53:53;6.20;99.90
6484;DHT22;3275;52.376;9.694;2023-11-21T22:56:19;6.20;99.90
6484;DHT22;3275;52.376;9.694;2023-11-21T22:58:47;6.30;99.90
6484;DHT22;3275;52.376;9.694;2023-11-21T23:01:14;6.30;99.90
6484;DHT22;3275;52.376;9.694;2023-11-21T23:03:41;6.30;99.90
6484;DHT22;3275;52.376;9.694;2023-11-21T23:06:09;6.20;99.90
6484;DHT22;3275;52.376;9.694;2023-11-21T23:08:36;6.20;99.90
6484;DHT22;3275;52.376;9.694;2023-11-21T23:11:05;6.10;99.90
6484;DHT22;3275;52.376;9.694;2023-11-21T23:13:32;6.10;99.90
6484;DHT22;3275;52.376;9.694;2023-11-21T23:15:59;6.10;99.90
